sensor_id;sensor_type;location;lat;lon;timestamp;pressure;altitude;pressure_sealevel;temperature;humidity
10342;BME280;5216;54.602;18.356;2022-07-06T10:31:27;101616.19;;;21.85;100.00
10342;BME280;5216;54.602;18.356;2022-07-06T10:34:00;101619.16;;;21.70;100.00
10342;BME280;5216;54.602;18.356;2022-07-06T10:36:28;101610.22;;;21.74;100.00
10342;BME280;5216;54.602;18.356;2022-07-06T10:38:55;101612.75;;;21.85;100.00
10342;BME280;5216;54.602;18.356;2022-07-06T10:41:33;101610.75;;;21.88;100.00
10342;BME280;5216;54.602;18.356;2022-07-06T10:44:23;101611.34;;;21.81;100.00
10342;BME280;5216;54.602;18.356;2022-07-06T10:47:01;101613.84;;;21.82;100.00
10342;BME280;5216;54.602;18.356;2022-07-06T10:49:30;101614.00;;;22.01;100.00
10342;BME280;5216;54.602;18.356;2022-07-06T10:52:17;101613.75;;;22.04;100.00
10342;BME280;5216;54.602;18.356;2022-07-06T10:54:46;101617.00;;;21.86;100.00
10342;BME280;5216;54.602;18.356;2022-07-06T10:57:13;101618.56;;;22.09;100.00
10342;BME280;5216;54.602;18.356;2022-07-06T11:00:00;101615.97;;;22.09;100.00
10342;BME280;5216;54.602;18.356;2022-07-06T11:02:38;101601.41;;;21.97;100.00
10342;BME280;5216;54.602;18.356;2022-07-06T11:05:11;101610.63;;;21.90;100.00
10342;BME280;5216;54.602;18.356;2022-07-06T11:07:50;101602.06;;;22.10;100.00
10342;BME280;5216;54.602;18.356;2022-07-06T11:10:17;101605.56;;;21.99;100.00
10342;BME280;5216;54.602;18.356;2022-07-06T11:12:44;101610.63;;;21.90;100.00
10342;BME280;5216;54.602;18.356;2022-07-06T11:15:11;101607.50;;;22.07;100.00
10342;BME280;5216;54.602;18.356;2022-07-06T11:17:38;101598.97;;;21.84;100.00
10342;BME280;5216;54.602;18.356;2022-07-06T11:20:10;101583.28;;;21.97;100.00
10342;BME280;5216;54.602;18.356;2022-07-06T11:22:38;101584.31;;;22.05;100.00
10342;BME280;5216;54.602;18.356;2022-07-06T11:25:06;101584.84;;;21.88;100.00
10342;BME280;5216;54.602;18.356;2022-07-06T11:27:34;101580.69;;;21.97;100.00
10342;BME280;5216;54.602;18.356;2022-07-06T11:30:01;101574.63;;;22.07;100.00
10342;BME280;5216;54.602;18.356;2022-07-06T11:32:28;101572.34;;;22.14;100.00
10342;BME280;5216;54.602;18.356;2022-07-06T11:34:55;101573.66;;;22.50;100.00
10342;BME280;5216;54.602;18.356;2022-07-06T11:37:22;101578.47;;;22.75;100.00
10342;BME280;5216;54.602;18.356;2022-07-06T11:39:49;101577.41;;;22.97;100.00
10342;BME280;5216;54.602;18.356;2022-07-06T11:42:17;101581.78;;;22.96;100.00
10342;BME280;5216;54.602;18.356;2022-07-06T11:44:45;101580.84;;;23.07;100.00
10342;BME280;5216;54.602;18.356;2022-07-06T11:47:12;101588.94;;;23.13;100.00
10342;BME280;5216;54.602;18.356;2022-07-06T11:49:43;101603.44;;;23.16;100.00
10342;BME280;5216;54.602;18.356;2022-07-06T11:52:13;101594.94;;;23.04;100.00
10342;BME280;5216;54.602;18.356;2022-07-06T11:54:40;101594.06;;;22.94;100.00
10342;BME280;5216;54.602;18.356;2022-07-06T11:57:09;101586.94;;;22.87;100.00
10342;BME280;5216;54.602;18.356;2022-07-06T11:59:39;101595.22;;;22.71;100.00
10342;BME280;5216;54.602;18.356;2022-07-06T12:02:14;101597.09;;;22.69;100.00
10342;BME280;5216;54.602;18.356;2022-07-06T12:04:43;101592.50;;;22.52;100.00
10342;BME280;5216;54.602;18.356;2022-07-06T12:07:12;101589.19;;;22.20;100.00
10342;BME280;5216;54.602;18.356;2022-07-06T12:09:42;101593.53;;;22.40;100.00
10342;BME280;5216;54.602;18.356;2022-07-06T12:12:10;101597.22;;;22.37;100.00
10342;BME280;5216;54.602;18.356;2022-07-06T12:14:39;101595.88;;;22.43;100.00
10342;BME280;5216;54.602;18.356;2022-07-06T12:17:12;101591.84;;;22.59;100.00
10342;BME280;5216;54.602;18.356;2022-07-06T12:19:40;101590.19;;;22.58;100.00
10342;BME280;5216;54.602;18.356;2022-07-06T12:22:08;101586.66;;;22.80;100.00
10342;BME280;5216;54.602;18.356;2022-07-06T12:24:36;101584.13;;;22.99;100.00
10342;BME280;5216;54.602;18.356;2022-07-06T12:29:37;101587.16;;;23.14;100.00
10342;BME280;5216;54.602;18.356;2022-07-06T12:32:05;101584.59;;;23.24;100.00
10342;BME280;5216;54.602;18.356;2022-07-06T12:34:32;101583.91;;;23.31;100.00
10342;BME280;5216;54.602;18.356;2022-07-06T12:37:08;101590.03;;;23.11;100.00
10342;BME280;5216;54.602;18.356;2022-07-06T12:39:43;101575.28;;;23.21;100.00
10342;BME280;5216;54.602;18.356;2022-07-06T12:42:13;101582.00;;;23.24;100.00
10342;BME280;5216;54.602;18.356;2022-07-06T12:44:49;101588.91;;;23.04;100.00
10342;BME280;5216;54.602;18.356;2022-07-06T12:47:19;101598.19;;;22.97;100.00
10342;BME280;5216;54.602;18.356;2022-07-06T12:49:46;101580.91;;;23.17;100.00
10342;BME280;5216;54.602;18.356;2022-07-06T12:52:15;101579.97;;;23.37;100.00
10342;BME280;5216;54.602;18.356;2022-07-06T12:54:43;101576.94;;;23.32;100.00
10342;BME280;5216;54.602;18.356;2022-07-06T12:59:46;101577.69;;;23.82;100.00
10342;BME280;5216;54.602;18.356;2022-07-06T13:02:25;101575.34;;;24.27;100.00
10342;BME280;5216;54.602;18.356;2022-07-06T13:05:15;101570.09;;;24.73;100.00
10342;BME280;5216;54.602;18.356;2022-07-06T13:07:47;101575.38;;;24.91;100.00
10342;BME280;5216;54.602;18.356;2022-07-06T13:10:15;101577.44;;;24.87;100.00
10342;BME280;5216;54.602;18.356;2022-07-06T13:12:43;101578.81;;;24.82;100.00
10342;BME280;5216;54.602;18.356;2022-07-06T13:15:11;101585.31;;;24.68;100.00
10342;BME280;5216;54.602;18.356;2022-07-06T13:17:37;101591.78;;;24.64;100.00
10342;BME280;5216;54.602;18.356;2022-07-06T13:20:06;101577.66;;;24.67;100.00
10342;BME280;5216;54.602;18.356;2022-07-06T13:22:34;101581.44;;;24.72;100.00
10342;BME280;5216;54.602;18.356;2022-07-06T13:25:02;101585.78;;;24.91;100.00
10342;BME280;5216;54.602;18.356;2022-07-06T13:27:29;101575.97;;;24.75;100.00
10342;BME280;5216;54.602;18.356;2022-07-06T13:29:56;101574.03;;;24.87;100.00
10342;BME280;5216;54.602;18.356;2022-07-06T13:32:23;101577.59;;;24.76;100.00
10342;BME280;5216;54.602;18.356;2022-07-06T13:34:50;101575.63;;;24.24;100.00
10342;BME280;5216;54.602;18.356;2022-07-06T13:37:19;101585.06;;;23.48;100.00
10342;BME280;5216;54.602;18.356;2022-07-06T13:39:46;101577.63;;;22.75;100.00
10342;BME280;5216;54.602;18.356;2022-07-06T13:42:13;101583.03;;;23.02;100.00
10342;BME280;5216;54.602;18.356;2022-07-06T13:44:40;101586.34;;;23.13;100.00
10342;BME280;5216;54.602;18.356;2022-07-06T13:47:07;101586.97;;;23.46;100.00
10342;BME280;5216;54.602;18.356;2022-07-06T13:49:34;101589.00;;;22.93;100.00
10342;BME280;5216;54.602;18.356;2022-07-06T13:52:01;101574.53;;;22.90;100.00
10342;BME280;5216;54.602;18.356;2022-07-06T13:54:32;101575.34;;;22.91;100.00
10342;BME280;5216;54.602;18.356;2022-07-06T13:57:04;101576.84;;;23.62;100.00
10342;BME280;5216;54.602;18.356;2022-07-06T13:59:31;101573.03;;;23.76;100.00
10342;BME280;5216;54.602;18.356;2022-07-06T14:01:58;101568.06;;;24.30;100.00
10342;BME280;5216;54.602;18.356;2022-07-06T14:04:25;101575.16;;;24.75;100.00
10342;BME280;5216;54.602;18.356;2022-07-06T14:06:52;101581.91;;;24.68;100.00
10342;BME280;5216;54.602;18.356;2022-07-06T14:09:19;101561.22;;;24.29;100.00
10342;BME280;5216;54.602;18.356;2022-07-06T14:11:45;101562.94;;;23.82;100.00
10342;BME280;5216;54.602;18.356;2022-07-06T14:14:12;101570.13;;;24.27;100.00
10342;BME280;5216;54.602;18.356;2022-07-06T14:16:39;101574.22;;;24.10;100.00
10342;BME280;5216;54.602;18.356;2022-07-06T14:19:10;101581.38;;;23.89;100.00
10342;BME280;5216;54.602;18.356;2022-07-06T14:21:42;101578.09;;;23.48;100.00
10342;BME280;5216;54.602;18.356;2022-07-06T14:24:08;101568.47;;;23.20;100.00
10342;BME280;5216;54.602;18.356;2022-07-06T14:26:35;101566.94;;;23.08;100.00
10342;BME280;5216;54.602;18.356;2022-07-06T14:29:02;101560.53;;;23.22;100.00
10342;BME280;5216;54.602;18.356;2022-07-06T14:31:30;101563.88;;;23.52;100.00
10342;BME280;5216;54.602;18.356;2022-07-06T14:33:56;101551.44;;;23.65;100.00
10342;BME280;5216;54.602;18.356;2022-07-06T14:36:23;101557.19;;;23.69;100.00
10342;BME280;5216;54.602;18.356;2022-07-06T14:38:50;101560.31;;;23.73;100.00
10342;BME280;5216;54.602;18.356;2022-07-06T14:41:16;101564.78;;;23.32;100.00
10342;BME280;5216;54.602;18.356;2022-07-06T14:43:43;101550.06;;;23.52;100.00
10342;BME280;5216;54.602;18.356;2022-07-06T14:46:10;101557.41;;;24.04;100.00
10342;BME280;5216;54.602;18.356;2022-07-06T14:48:37;101550.84;;;24.56;100.00
10342;BME280;5216;54.602;18.356;2022-07-06T14:51:04;101555.16;;;24.38;100.00
10342;BME280;5216;54.602;18.356;2022-07-06T14:53:31;101546.19;;;24.23;100.00
10342;BME280;5216;54.602;18.356;2022-07-06T14:55:58;101550.78;;;24.39;100.00
10342;BME280;5216;54.602;18.356;2022-07-06T14:58:24;101543.91;;;23.72;100.00
10342;BME280;5216;54.602;18.356;2022-07-06T15:00:51;101556.56;;;23.17;100.00
10342;BME280;5216;54.602;18.356;2022-07-06T15:03:25;101561.81;;;23.37;100.00
10342;BME280;5216;54.602;18.356;2022-07-06T15:05:53;101557.88;;;22.93;100.00
10342;BME280;5216;54.602;18.356;2022-07-06T15:08:20;101551.06;;;23.01;100.00
10342;BME280;5216;54.602;18.356;2022-07-06T15:10:46;101544.91;;;22.93;100.00
10342;BME280;5216;54.602;18.356;2022-07-06T15:13:15;101545.72;;;22.93;100.00
10342;BME280;5216;54.602;18.356;2022-07-06T15:15:41;101541.59;;;22.81;100.00
10342;BME280;5216;54.602;18.356;2022-07-06T15:18:25;101537.94;;;22.53;100.00
10342;BME280;5216;54.602;18.356;2022-07-06T15:20:52;101542.53;;;22.71;100.00
10342;BME280;5216;54.602;18.356;2022-07-06T15:23:19;101547.75;;;22.80;100.00
10342;BME280;5216;54.602;18.356;2022-07-06T15:25:46;101539.59;;;22.94;100.00
10342;BME280;5216;54.602;18.356;2022-07-06T15:28:23;101531.63;;;23.64;100.00
10342;BME280;5216;54.602;18.356;2022-07-06T15:30:53;101526.84;;;23.60;100.00
10342;BME280;5216;54.602;18.356;2022-07-06T15:33:20;101540.72;;;23.21;100.00
10342;BME280;5216;54.602;18.356;2022-07-06T15:35:48;101528.59;;;23.88;100.00
10342;BME280;5216;54.602;18.356;2022-07-06T15:38:15;101536.25;;;23.99;93.48
10342;BME280;5216;54.602;18.356;2022-07-06T15:40:42;101525.94;;;24.07;85.58
10342;BME280;5216;54.602;18.356;2022-07-06T15:43:12;101532.22;;;24.24;87.58
10342;BME280;5216;54.602;18.356;2022-07-06T15:45:40;101527.84;;;24.25;86.13
10342;BME280;5216;54.602;18.356;2022-07-06T15:48:07;101530.22;;;23.99;87.86
10342;BME280;5216;54.602;18.356;2022-07-06T15:50:34;101524.91;;;23.62;89.84
10342;BME280;5216;54.602;18.356;2022-07-06T15:53:02;101539.84;;;23.50;93.78
10342;BME280;5216;54.602;18.356;2022-07-06T15:55:30;101535.88;;;23.46;93.17
10342;BME280;5216;54.602;18.356;2022-07-06T15:57:57;101522.16;;;23.83;92.69
10342;BME280;5216;54.602;18.356;2022-07-06T16:00:24;101522.03;;;23.84;91.15
10342;BME280;5216;54.602;18.356;2022-07-06T16:02:51;101507.97;;;23.48;89.91
10342;BME280;5216;54.602;18.356;2022-07-06T16:05:17;101517.56;;;23.57;93.17
10342;BME280;5216;54.602;18.356;2022-07-06T16:07:48;101517.34;;;23.21;93.02
10342;BME280;5216;54.602;18.356;2022-07-06T16:10:35;101527.53;;;23.43;95.04
10342;BME280;5216;54.602;18.356;2022-07-06T16:13:02;101514.41;;;23.63;94.09
10342;BME280;5216;54.602;18.356;2022-07-06T16:15:29;101516.47;;;23.41;91.89
10342;BME280;5216;54.602;18.356;2022-07-06T16:17:56;101516.56;;;23.58;88.28
10342;BME280;5216;54.602;18.356;2022-07-06T16:20:22;101502.91;;;23.66;87.78
10342;BME280;5216;54.602;18.356;2022-07-06T16:22:49;101509.88;;;23.65;87.44
10342;BME280;5216;54.602;18.356;2022-07-06T16:25:16;101504.16;;;23.72;89.06
10342;BME280;5216;54.602;18.356;2022-07-06T16:27:48;101509.53;;;24.07;88.39
10342;BME280;5216;54.602;18.356;2022-07-06T16:30:15;101505.31;;;24.06;87.62
10342;BME280;5216;54.602;18.356;2022-07-06T16:32:47;101506.03;;;23.89;88.27
10342;BME280;5216;54.602;18.356;2022-07-06T16:35:14;101509.41;;;23.89;89.12
10342;BME280;5216;54.602;18.356;2022-07-06T16:37:41;101511.47;;;24.05;89.89
10342;BME280;5216;54.602;18.356;2022-07-06T16:40:09;101511.91;;;23.91;87.40
10342;BME280;5216;54.602;18.356;2022-07-06T16:42:36;101508.47;;;23.90;87.54
10342;BME280;5216;54.602;18.356;2022-07-06T16:45:03;101516.91;;;24.11;87.79
10342;BME280;5216;54.602;18.356;2022-07-06T16:47:30;101509.09;;;24.11;87.69
10342;BME280;5216;54.602;18.356;2022-07-06T16:49:58;101513.34;;;24.22;90.04
10342;BME280;5216;54.602;18.356;2022-07-06T16:52:27;101507.19;;;24.23;88.22
10342;BME280;5216;54.602;18.356;2022-07-06T16:54:55;101512.34;;;24.33;86.89
10342;BME280;5216;54.602;18.356;2022-07-06T16:57:22;101512.03;;;24.45;86.58
10342;BME280;5216;54.602;18.356;2022-07-06T16:59:49;101508.81;;;24.34;84.34
10342;BME280;5216;54.602;18.356;2022-07-06T17:02:17;101503.69;;;24.42;84.73
10342;BME280;5216;54.602;18.356;2022-07-06T17:04:52;101510.91;;;24.48;83.32
10342;BME280;5216;54.602;18.356;2022-07-06T17:07:19;101510.66;;;24.51;84.13
10342;BME280;5216;54.602;18.356;2022-07-06T17:09:45;101514.59;;;24.18;83.54
10342;BME280;5216;54.602;18.356;2022-07-06T17:12:20;101510.56;;;23.68;87.09
10342;BME280;5216;54.602;18.356;2022-07-06T17:14:48;101508.66;;;23.60;85.45
10342;BME280;5216;54.602;18.356;2022-07-06T17:17:14;101514.25;;;23.55;86.50
10342;BME280;5216;54.602;18.356;2022-07-06T17:19:45;101506.75;;;23.52;85.67
10342;BME280;5216;54.602;18.356;2022-07-06T17:22:15;101510.00;;;23.16;87.91
10342;BME280;5216;54.602;18.356;2022-07-06T17:24:46;101506.97;;;23.11;88.82
10342;BME280;5216;54.602;18.356;2022-07-06T17:27:17;101509.78;;;22.79;89.23
10342;BME280;5216;54.602;18.356;2022-07-06T17:29:46;101504.63;;;22.98;90.21
10342;BME280;5216;54.602;18.356;2022-07-06T17:32:14;101494.81;;;22.92;91.23
10342;BME280;5216;54.602;18.356;2022-07-06T17:34:53;101495.91;;;23.09;91.49
10342;BME280;5216;54.602;18.356;2022-07-06T17:37:27;101503.84;;;23.17;92.70
10342;BME280;5216;54.602;18.356;2022-07-06T17:39:56;101509.16;;;23.35;92.17
10342;BME280;5216;54.602;18.356;2022-07-06T17:42:25;101501.38;;;22.66;96.12
10342;BME280;5216;54.602;18.356;2022-07-06T17:44:53;101498.75;;;22.96;96.82
10342;BME280;5216;54.602;18.356;2022-07-06T17:47:22;101502.34;;;22.65;98.55
10342;BME280;5216;54.602;18.356;2022-07-06T17:49:59;101506.63;;;22.76;98.78
10342;BME280;5216;54.602;18.356;2022-07-06T17:52:26;101499.28;;;22.81;98.57
10342;BME280;5216;54.602;18.356;2022-07-06T17:54:52;101506.13;;;22.82;98.98
10342;BME280;5216;54.602;18.356;2022-07-06T17:57:24;101508.22;;;23.17;97.80
10342;BME280;5216;54.602;18.356;2022-07-06T17:59:53;101508.91;;;23.28;96.78
10342;BME280;5216;54.602;18.356;2022-07-06T18:02:23;101508.41;;;23.44;96.20
10342;BME280;5216;54.602;18.356;2022-07-06T18:04:50;101500.72;;;23.52;95.29
10342;BME280;5216;54.602;18.356;2022-07-06T18:07:20;101503.47;;;23.50;94.15
10342;BME280;5216;54.602;18.356;2022-07-06T18:09:53;101507.16;;;23.48;94.59
10342;BME280;5216;54.602;18.356;2022-07-06T18:12:26;101504.97;;;23.53;94.48
10342;BME280;5216;54.602;18.356;2022-07-06T18:14:56;101506.47;;;23.46;95.54
10342;BME280;5216;54.602;18.356;2022-07-06T18:17:29;101503.88;;;23.46;95.44
10342;BME280;5216;54.602;18.356;2022-07-06T18:19:55;101503.16;;;23.05;96.95
10342;BME280;5216;54.602;18.356;2022-07-06T18:22:22;101506.19;;;23.20;97.83
10342;BME280;5216;54.602;18.356;2022-07-06T18:24:52;101510.22;;;22.54;100.00
10342;BME280;5216;54.602;18.356;2022-07-06T18:27:21;101496.81;;;22.49;100.00
10342;BME280;5216;54.602;18.356;2022-07-06T18:29:48;101498.28;;;22.72;100.00
10342;BME280;5216;54.602;18.356;2022-07-06T18:32:20;101501.06;;;22.90;100.00
10342;BME280;5216;54.602;18.356;2022-07-06T18:34:50;101491.66;;;22.98;100.00
10342;BME280;5216;54.602;18.356;2022-07-06T18:37:17;101488.34;;;22.68;100.00
10342;BME280;5216;54.602;18.356;2022-07-06T18:39:44;101497.63;;;22.40;100.00
10342;BME280;5216;54.602;18.356;2022-07-06T18:42:11;101494.50;;;22.15;100.00
10342;BME280;5216;54.602;18.356;2022-07-06T18:44:38;101493.94;;;22.42;100.00
10342;BME280;5216;54.602;18.356;2022-07-06T18:47:08;101493.31;;;22.20;100.00
10342;BME280;5216;54.602;18.356;2022-07-06T18:49:37;101492.53;;;21.87;100.00
10342;BME280;5216;54.602;18.356;2022-07-06T18:52:06;101482.56;;;21.83;100.00
10342;BME280;5216;54.602;18.356;2022-07-06T18:54:41;101492.56;;;22.08;100.00
10342;BME280;5216;54.602;18.356;2022-07-06T18:57:08;101489.38;;;21.63;100.00
10342;BME280;5216;54.602;18.356;2022-07-06T18:59:55;101485.66;;;21.77;100.00
10342;BME280;5216;54.602;18.356;2022-07-06T19:02:32;101484.72;;;21.98;100.00
10342;BME280;5216;54.602;18.356;2022-07-06T19:05:04;101487.50;;;21.65;100.00
10342;BME280;5216;54.602;18.356;2022-07-06T19:07:36;101479.78;;;21.75;100.00
10342;BME280;5216;54.602;18.356;2022-07-06T19:10:02;101487.63;;;21.63;100.00
10342;BME280;5216;54.602;18.356;2022-07-06T19:12:29;101479.22;;;21.50;100.00
10342;BME280;5216;54.602;18.356;2022-07-06T19:14:56;101479.38;;;21.58;100.00
10342;BME280;5216;54.602;18.356;2022-07-06T19:17:27;101475.56;;;21.21;100.00
10342;BME280;5216;54.602;18.356;2022-07-06T19:19:54;101476.78;;;21.38;100.00
10342;BME280;5216;54.602;18.356;2022-07-06T19:22:28;101475.44;;;21.54;100.00
10342;BME280;5216;54.602;18.356;2022-07-06T19:25:00;101476.31;;;21.44;100.00
10342;BME280;5216;54.602;18.356;2022-07-06T19:27:31;101475.25;;;21.67;100.00
10342;BME280;5216;54.602;18.356;2022-07-06T19:30:04;101483.44;;;21.72;100.00
10342;BME280;5216;54.602;18.356;2022-07-06T19:32:37;101470.75;;;21.90;100.00
10342;BME280;5216;54.602;18.356;2022-07-06T19:35:04;101470.41;;;21.83;100.00
10342;BME280;5216;54.602;18.356;2022-07-06T19:37:38;101470.81;;;21.79;100.00
10342;BME280;5216;54.602;18.356;2022-07-06T19:40:08;101473.22;;;21.50;100.00
10342;BME280;5216;54.602;18.356;2022-07-06T19:42:35;101476.19;;;21.34;100.00
10342;BME280;5216;54.602;18.356;2022-07-06T19:45:23;101471.97;;;21.44;100.00
10342;BME280;5216;54.602;18.356;2022-07-06T19:48:03;101480.53;;;21.02;100.00
10342;BME280;5216;54.602;18.356;2022-07-06T19:50:31;101467.28;;;20.95;100.00
10342;BME280;5216;54.602;18.356;2022-07-06T19:52:58;101472.44;;;20.95;100.00
10342;BME280;5216;54.602;18.356;2022-07-06T19:55:30;101473.53;;;20.82;100.00
10342;BME280;5216;54.602;18.356;2022-07-06T19:57:57;101464.31;;;21.11;100.00
10342;BME280;5216;54.602;18.356;2022-07-06T20:00:28;101466.78;;;21.01;100.00
10342;BME280;5216;54.602;18.356;2022-07-06T20:02:57;101469.66;;;20.76;100.00
10342;BME280;5216;54.602;18.356;2022-07-06T20:05:24;101458.19;;;21.01;100.00
10342;BME280;5216;54.602;18.356;2022-07-06T20:07:51;101461.63;;;20.90;100.00
10342;BME280;5216;54.602;18.356;2022-07-06T20:10:21;101457.94;;;21.04;100.00
10342;BME280;5216;54.602;18.356;2022-07-06T20:12:53;101454.84;;;21.21;100.00
10342;BME280;5216;54.602;18.356;2022-07-06T20:15:33;101462.03;;;21.17;100.00
10342;BME280;5216;54.602;18.356;2022-07-06T20:18:08;101456.97;;;21.27;100.00
10342;BME280;5216;54.602;18.356;2022-07-06T20:20:35;101449.13;;;21.38;100.00
10342;BME280;5216;54.602;18.356;2022-07-06T20:23:02;101454.50;;;21.26;100.00
10342;BME280;5216;54.602;18.356;2022-07-06T20:25:35;101455.00;;;21.20;100.00
10342;BME280;5216;54.602;18.356;2022-07-06T20:28:02;101449.91;;;21.29;100.00
10342;BME280;5216;54.602;18.356;2022-07-06T20:30:29;101456.97;;;21.27;100.00
10342;BME280;5216;54.602;18.356;2022-07-06T20:32:57;101448.97;;;21.30;100.00
10342;BME280;5216;54.602;18.356;2022-07-06T20:35:27;101448.81;;;21.32;100.00
10342;BME280;5216;54.602;18.356;2022-07-06T20:37:57;101451.22;;;21.24;100.00
10342;BME280;5216;54.602;18.356;2022-07-06T20:40:28;101449.56;;;21.23;100.00
10342;BME280;5216;54.602;18.356;2022-07-06T20:42:55;101447.03;;;21.00;100.00
10342;BME280;5216;54.602;18.356;2022-07-06T20:45:42;101444.97;;;21.26;100.00
10342;BME280;5216;54.602;18.356;2022-07-06T20:48:09;101450.47;;;21.33;100.00
10342;BME280;5216;54.602;18.356;2022-07-06T20:50:37;101445.34;;;21.22;100.00
10342;BME280;5216;54.602;18.356;2022-07-06T20:53:04;101446.09;;;21.01;100.00
10342;BME280;5216;54.602;18.356;2022-07-06T20:55:32;101452.66;;;21.17;100.00
10342;BME280;5216;54.602;18.356;2022-07-06T20:57:59;101435.84;;;21.11;100.00
10342;BME280;5216;54.602;18.356;2022-07-06T21:00:26;101443.72;;;21.09;100.00
10342;BME280;5216;54.602;18.356;2022-07-06T21:02:53;101446.38;;;21.30;100.00
10342;BME280;5216;54.602;18.356;2022-07-06T21:05:21;101441.81;;;21.23;100.00
10342;BME280;5216;54.602;18.356;2022-07-06T21:07:48;101437.00;;;21.18;100.00
10342;BME280;5216;54.602;18.356;2022-07-06T21:10:14;101437.94;;;21.17;100.00
10342;BME280;5216;54.602;18.356;2022-07-06T21:12:41;101439.53;;;21.29;100.00
10342;BME280;5216;54.602;18.356;2022-07-06T21:15:10;101443.81;;;21.19;100.00
10342;BME280;5216;54.602;18.356;2022-07-06T21:17:38;101440.66;;;21.15;100.00
10342;BME280;5216;54.602;18.356;2022-07-06T21:20:06;101437.81;;;21.19;100.00
10342;BME280;5216;54.602;18.356;2022-07-06T21:22:33;101448.63;;;20.70;100.00
10342;BME280;5216;54.602;18.356;2022-07-06T21:25:00;101449.47;;;20.70;100.00
10342;BME280;5216;54.602;18.356;2022-07-06T21:27:27;101451.31;;;20.79;100.00
10342;BME280;5216;54.602;18.356;2022-07-06T21:29:53;101459.53;;;20.84;100.00
10342;BME280;5216;54.602;18.356;2022-07-06T21:32:20;101455.97;;;20.96;100.00
10342;BME280;5216;54.602;18.356;2022-07-06T21:34:46;101452.41;;;21.08;100.00
10342;BME280;5216;54.602;18.356;2022-07-06T21:37:13;101453.59;;;21.15;100.00
10342;BME280;5216;54.602;18.356;2022-07-06T21:39:40;101452.59;;;21.28;100.00
10342;BME280;5216;54.602;18.356;2022-07-06T21:42:07;101449.00;;;21.19;100.00
10342;BME280;5216;54.602;18.356;2022-07-06T21:44:36;101453.81;;;21.24;100.00
10342;BME280;5216;54.602;18.356;2022-07-06T21:47:03;101444.81;;;21.28;100.00
10342;BME280;5216;54.602;18.356;2022-07-06T21:49:30;101436.38;;;21.26;100.00
10342;BME280;5216;54.602;18.356;2022-07-06T21:51:57;101445.41;;;21.31;100.00
10342;BME280;5216;54.602;18.356;2022-07-06T21:54:23;101441.75;;;21.13;100.00
10342;BME280;5216;54.602;18.356;2022-07-06T21:56:50;101446.66;;;21.05;100.00
10342;BME280;5216;54.602;18.356;2022-07-06T21:59:16;101443.66;;;20.89;100.00
10342;BME280;5216;54.602;18.356;2022-07-06T22:01:43;101443.97;;;21.06;100.00
10342;BME280;5216;54.602;18.356;2022-07-06T22:04:09;101443.66;;;20.89;100.00
10342;BME280;5216;54.602;18.356;2022-07-06T22:06:36;101443.75;;;20.98;100.00
10342;BME280;5216;54.602;18.356;2022-07-06T22:09:04;101433.19;;;20.90;100.00
10342;BME280;5216;54.602;18.356;2022-07-06T22:11:30;101438.63;;;20.76;100.00
10342;BME280;5216;54.602;18.356;2022-07-06T22:13:57;101432.09;;;20.61;100.00
10342;BME280;5216;54.602;18.356;2022-07-06T22:16:24;101438.69;;;20.54;100.00
10342;BME280;5216;54.602;18.356;2022-07-06T22:18:52;101445.56;;;20.76;100.00
10342;BME280;5216;54.602;18.356;2022-07-06T22:21:21;101438.75;;;20.75;100.00
10342;BME280;5216;54.602;18.356;2022-07-06T22:23:49;101430.16;;;20.85;100.00
10342;BME280;5216;54.602;18.356;2022-07-06T22:26:16;101427.81;;;20.82;100.00
10342;BME280;5216;54.602;18.356;2022-07-06T22:28:47;101437.78;;;20.76;100.00
10342;BME280;5216;54.602;18.356;2022-07-06T22:31:14;101431.06;;;20.95;100.00
10342;BME280;5216;54.602;18.356;2022-07-06T22:33:42;101431.88;;;20.96;100.00
10342;BME280;5216;54.602;18.356;2022-07-06T22:36:09;101437.81;;;21.07;100.00
10342;BME280;5216;54.602;18.356;2022-07-06T22:38:35;101438.78;;;21.06;100.00
10342;BME280;5216;54.602;18.356;2022-07-06T22:41:02;101438.63;;;20.76;100.00
10342;BME280;5216;54.602;18.356;2022-07-06T22:43:34;101434.00;;;20.91;100.00
10342;BME280;5216;54.602;18.356;2022-07-06T22:46:08;101433.16;;;21.12;100.00
10342;BME280;5216;54.602;18.356;2022-07-06T22:48:38;101431.09;;;20.84;100.00
10342;BME280;5216;54.602;18.356;2022-07-06T22:51:05;101434.25;;;20.88;100.00
10342;BME280;5216;54.602;18.356;2022-07-06T22:53:32;101432.19;;;20.71;100.00
10342;BME280;5216;54.602;18.356;2022-07-06T22:55:59;101436.50;;;20.81;100.00
10342;BME280;5216;54.602;18.356;2022-07-06T22:58:31;101430.09;;;20.96;100.00
10342;BME280;5216;54.602;18.356;2022-07-06T23:00:57;101425.75;;;20.97;100.00
10342;BME280;5216;54.602;18.356;2022-07-06T23:03:24;101418.97;;;20.96;100.00
10342;BME280;5216;54.602;18.356;2022-07-06T23:05:51;101428.66;;;21.14;100.00
10342;BME280;5216;54.602;18.356;2022-07-06T23:08:21;101425.44;;;20.90;100.00
10342;BME280;5216;54.602;18.356;2022-07-06T23:10:49;101430.75;;;20.78;100.00
10342;BME280;5216;54.602;18.356;2022-07-06T23:13:16;101428.41;;;20.86;100.00
10342;BME280;5216;54.602;18.356;2022-07-06T23:15:43;101427.66;;;20.95;100.00
10342;BME280;5216;54.602;18.356;2022-07-06T23:18:10;101420.81;;;20.94;100.00
10342;BME280;5216;54.602;18.356;2022-07-06T23:20:37;101429.25;;;20.64;100.00
10342;BME280;5216;54.602;18.356;2022-07-06T23:23:03;101437.94;;;20.74;100.00
10342;BME280;5216;54.602;18.356;2022-07-06T23:25:30;101432.75;;;20.74;100.00
10342;BME280;5216;54.602;18.356;2022-07-06T23:27:57;101433.59;;;20.75;100.00